Time;durP1;ratioP1;P1;durP2;ratioP2;P2;SDS_P1;SDS_P2;PMS_P1;PMS_P2;Temp;Humidity;BMP_temperature;BMP_pressure;BME280_temperature;BME280_humidity;BME280_pressure;Samples;Min_cycle;Max_cycle;Signal;HPM_P1;HPM_P2
2024/02/10 00:01:21;;;;;;;2.85;1.92;;;14.90;54.40;;;;;;6288289;28;20039;-75
2024/02/10 00:04:22;;;;;;;3.55;1.88;;;14.90;54.30;;;;;;6287892;28;20038;-76
2024/02/10 00:07:23;;;;;;;6.38;1.58;;;14.90;54.40;;;;;;6289462;28;20028;-76
2024/02/10 00:10:27;;;;;;;4.50;2.10;;;14.90;54.50;;;;;;6285886;28;20025;-76
2024/02/10 00:13:29;;;;;;;3.63;2.30;;;14.90;54.40;;;;;;6289853;28;20123;-76
2024/02/10 00:16:33;;;;;;;7.15;1.83;;;14.90;54.30;;;;;;6289085;28;20668;-75
2024/02/10 00:19:36;;;;;;;5.35;2.05;;;14.90;54.40;;;;;;6292274;28;20036;-74
2024/02/10 00:22:38;;;;;;;17.02;2.22;;;14.90;54.40;;;;;;6283206;28;20386;-75
2024/02/10 00:25:39;;;;;;;4.38;2.15;;;14.90;54.50;;;;;;6295992;28;20107;-75
2024/02/10 00:28:40;;;;;;;4.50;2.38;;;14.80;54.80;;;;;;6300179;28;20024;-77
2024/02/10 00:31:43;;;;;;;3.78;2.40;;;14.80;55.50;;;;;;6300757;28;20036;-75
2024/02/10 00:34:44;;;;;;;4.65;2.08;;;14.70;55.60;;;;;;6298765;28;20017;-75
2024/02/10 00:37:45;;;;;;;6.88;2.30;;;14.70;55.70;;;;;;6297275;28;20072;-76
2024/02/10 00:40:46;;;;;;;3.65;2.22;;;14.60;55.80;;;;;;6287257;28;20027;-77
2024/02/10 00:43:49;;;;;;;5.85;2.45;;;14.60;56.00;;;;;;6297297;28;20114;-76
2024/02/10 00:46:50;;;;;;;6.28;2.28;;;14.50;56.10;;;;;;6307361;28;20122;-76
2024/02/10 00:49:52;;;;;;;4.50;1.98;;;14.50;56.00;;;;;;6290223;28;20028;-76
2024/02/10 00:52:52;;;;;;;1.15;1.00;;;14.50;55.90;;;;;;6282300;28;20081;-76
2024/02/10 00:55:53;;;;;;;2.17;1.42;;;14.50;55.70;;;;;;6282040;28;20383;-76
2024/02/10 00:58:54;;;;;;;2.25;1.30;;;14.50;55.70;;;;;;6289089;28;20055;-75
2024/02/10 01:01:55;;;;;;;9.15;2.45;;;14.50;55.60;;;;;;6286792;28;20703;-76
2024/02/10 01:04:56;;;;;;;3.10;1.77;;;14.50;55.50;;;;;;6287967;28;20025;-74
2024/02/10 01:07:59;;;;;;;4.28;1.85;;;14.50;55.40;;;;;;6305243;28;20036;-74
2024/02/10 01:11:01;;;;;;;2.53;1.70;;;14.60;55.50;;;;;;6281934;28;20433;-76
2024/02/10 01:14:05;;;;;;;5.68;2.00;;;14.60;55.40;;;;;;6284573;28;20619;-75
2024/02/10 01:17:10;;;;;;;5.43;2.10;;;14.60;56.20;;;;;;6296164;28;20017;-75
2024/02/10 01:20:12;;;;;;;3.25;2.17;;;14.50;55.70;;;;;;6284102;28;20119;-75
2024/02/10 01:23:13;;;;;;;3.70;1.90;;;14.50;55.70;;;;;;6286225;28;20093;-77
2024/02/10 01:26:17;;;;;;;3.63;1.80;;;14.60;55.70;;;;;;6306422;28;20074;-76
2024/02/10 01:29:18;;;;;;;3.92;2.00;;;14.60;55.50;;;;;;6300894;28;20083;-74
2024/02/10 01:32:23;;;;;;;5.57;2.38;;;14.60;55.70;;;;;;6282677;28;20036;-73
2024/02/10 01:35:24;;;;;;;4.82;2.10;;;14.50;55.80;;;;;;6298414;28;20043;-75
2024/02/10 01:38:26;;;;;;;4.28;1.95;;;14.50;55.90;;;;;;6294392;28;20061;-76
2024/02/10 01:41:29;;;;;;;5.90;1.98;;;14.50;55.80;;;;;;6294831;28;20032;-75
2024/02/10 01:44:31;;;;;;;3.95;2.03;;;14.50;55.90;;;;;;6282098;28;20020;-75
2024/02/10 01:47:34;;;;;;;5.35;1.85;;;14.50;55.90;;;;;;6286959;28;20190;-74
2024/02/10 01:50:36;;;;;;;2.10;1.40;;;14.50;56.00;;;;;;6292249;28;20025;-76
2024/02/10 01:53:38;;;;;;;2.33;1.67;;;14.50;56.00;;;;;;6280890;28;20048;-76
2024/02/10 01:56:40;;;;;;;3.53;1.77;;;14.50;55.90;;;;;;6283655;28;20136;-75
2024/02/10 01:59:42;;;;;;;2.72;1.83;;;14.50;56.00;;;;;;6295271;28;20682;-75
2024/02/10 02:02:43;;;;;;;3.15;1.63;;;14.50;56.20;;;;;;6301577;28;20116;-75
2024/02/10 02:05:44;;;;;;;5.25;2.08;;;14.50;56.40;;;;;;6283241;28;20094;-75
2024/02/10 02:08:49;;;;;;;3.03;2.10;;;14.40;56.50;;;;;;6288956;28;20027;-74
2024/02/10 02:11:51;;;;;;;4.93;2.00;;;14.40;56.70;;;;;;6305420;28;20376;-75
2024/02/10 02:14:53;;;;;;;2.72;1.80;;;14.30;56.80;;;;;;6293539;28;20040;-76
2024/02/10 02:17:57;;;;;;;4.15;2.00;;;14.30;57.50;;;;;;6290717;28;20434;-76
2024/02/10 02:20:58;;;;;;;4.63;2.60;;;14.50;57.10;;;;;;6298441;28;20069;-75
2024/02/10 02:23:59;;;;;;;5.13;2.17;;;14.30;57.10;;;;;;6298536;28;20029;-76
2024/02/10 02:27:00;;;;;;;3.90;1.90;;;14.20;57.00;;;;;;6309790;28;20048;-76
2024/02/10 02:30:01;;;;;;;4.15;2.05;;;14.30;57.10;;;;;;6296553;28;20115;-75
2024/02/10 02:33:02;;;;;;;8.50;2.45;;;14.30;57.10;;;;;;6310333;28;20077;-75
2024/02/10 02:36:03;;;;;;;5.15;2.35;;;14.30;57.20;;;;;;6295175;28;20155;-75
2024/02/10 02:39:04;;;;;;;3.30;2.10;;;14.30;57.30;;;;;;6286866;28;20027;-76
2024/02/10 02:42:05;;;;;;;3.45;2.42;;;14.20;57.30;;;;;;6286923;28;20027;-77
2024/02/10 02:45:08;;;;;;;4.35;2.40;;;14.20;57.40;;;;;;6303293;28;20086;-74
2024/02/10 02:48:10;;;;;;;7.45;2.58;;;14.20;57.50;;;;;;6298422;28;20028;-76
2024/02/10 02:51:14;;;;;;;4.95;2.05;;;14.20;57.70;;;;;;6297033;28;20038;-75
2024/02/10 02:54:15;;;;;;;6.25;2.63;;;14.20;57.80;;;;;;6306348;28;20496;-76
2024/02/10 02:57:18;;;;;;;7.60;2.22;;;14.10;57.80;;;;;;6301888;28;20085;-76
2024/02/10 03:00:19;;;;;;;6.13;2.67;;;14.10;57.80;;;;;;6295420;28;20031;-75
2024/02/10 03:03:20;;;;;;;5.00;2.38;;;14.10;57.70;;;;;;6283122;28;20026;-75
2024/02/10 03:06:20;;;;;;;7.50;2.60;;;14.10;57.70;;;;;;6292157;28;20404;-75
2024/02/10 03:09:21;;;;;;;4.40;2.47;;;14.10;57.60;;;;;;6278333;28;20445;-76
2024/02/10 03:12:22;;;;;;;5.00;2.92;;;14.20;57.90;;;;;;6284081;28;20072;-75
2024/02/10 03:15:24;;;;;;;5.45;3.15;;;14.10;57.90;;;;;;6305259;28;20785;-74
2024/02/10 03:18:25;;;;;;;7.93;2.45;;;14.10;58.10;;;;;;6286792;28;20165;-75
2024/02/10 03:21:27;;;;;;;3.67;2.38;;;14.10;58.30;;;;;;6287062;28;20155;-76
2024/02/10 03:24:28;;;;;;;7.28;3.20;;;14.10;58.40;;;;;;6283812;28;20061;-76
2024/02/10 03:27:28;;;;;;;6.47;2.25;;;14.10;58.40;;;;;;6291570;28;20374;-75
2024/02/10 03:30:29;;;;;;;4.65;2.53;;;14.10;58.40;;;;;;6288612;28;20051;-75
2024/02/10 03:33:33;;;;;;;9.45;2.90;;;14.10;58.50;;;;;;6299336;28;20060;-76
2024/02/10 03:36:34;;;;;;;7.93;2.58;;;14.10;58.60;;;;;;6277783;28;20115;-75
2024/02/10 03:39:35;;;;;;;8.98;2.30;;;14.00;58.60;;;;;;6296600;28;20469;-76
2024/02/10 03:42:36;;;;;;;3.83;2.38;;;14.00;58.70;;;;;;6306733;28;20024;-74
2024/02/10 03:45:38;;;;;;;5.65;2.55;;;14.00;58.90;;;;;;6293082;28;20020;-75
2024/02/10 03:48:39;;;;;;;4.00;2.35;;;14.00;58.90;;;;;;6294955;28;20036;-76
2024/02/10 03:51:40;;;;;;;6.78;2.90;;;14.00;58.90;;;;;;6292143;28;20119;-76
2024/02/10 03:59:07;;;;;;;4.70;2.53;;;14.00;59.00;;;;;;6283536;28;20035;-76
2024/02/10 04:02:08;;;;;;;8.52;2.90;;;14.00;59.20;;;;;;6302604;28;20501;-74
2024/02/10 04:05:09;;;;;;;5.57;2.70;;;14.00;59.10;;;;;;6306266;28;20043;-76
2024/02/10 04:08:10;;;;;;;5.97;2.60;;;14.10;59.20;;;;;;6283696;28;20082;-75
2024/02/10 04:11:12;;;;;;;4.15;2.92;;;14.00;58.90;;;;;;6296409;28;20082;-74
2024/02/10 04:14:20;;;;;;;5.63;2.65;;;14.10;59.00;;;;;;6284126;28;20028;-74
2024/02/10 04:17:23;;;;;;;5.05;2.60;;;14.10;58.90;;;;;;6299100;28;20032;-76
2024/02/10 04:20:25;;;;;;;5.97;2.97;;;14.10;58.90;;;;;;6304576;28;20031;-76
2024/02/10 04:23:29;;;;;;;7.90;2.67;;;14.10;58.90;;;;;;6282462;28;20044;-75
2024/02/10 04:26:30;;;;;;;5.32;2.75;;;14.20;59.00;;;;;;6282488;28;20024;-77
2024/02/10 04:29:32;;;;;;;4.20;2.15;;;14.10;58.90;;;;;;6288567;28;20503;-74
2024/02/10 04:32:41;;;;;;;6.55;2.78;;;14.10;59.20;;;;;;6304953;28;20063;-76
2024/02/10 04:35:42;;;;;;;3.83;2.35;;;14.10;59.30;;;;;;6297185;28;20031;-75
2024/02/10 04:38:42;;;;;;;6.15;2.50;;;14.00;59.30;;;;;;6301367;28;20031;-75
2024/02/10 04:41:43;;;;;;;4.45;2.65;;;14.00;59.30;;;;;;6282547;28;20575;-75
2024/02/10 04:44:48;;;;;;;7.80;2.33;;;14.10;59.30;;;;;;6282180;28;20063;-75
2024/02/10 04:47:51;;;;;;;5.55;2.85;;;14.10;59.40;;;;;;6290166;28;20145;-75
2024/02/10 04:50:56;;;;;;;14.00;2.65;;;14.00;59.50;;;;;;6296203;28;20031;-75
2024/02/10 04:53:57;;;;;;;9.82;3.00;;;14.00;59.60;;;;;;6289526;28;20428;-75
2024/02/10 04:56:58;;;;;;;4.45;2.50;;;14.00;59.80;;;;;;6282698;28;20024;-75
2024/02/10 05:00:06;;;;;;;3.78;2.00;;;14.00;59.90;;;;;;6289379;28;20023;-75
2024/02/10 05:03:07;;;;;;;5.63;2.80;;;14.00;59.90;;;;;;6283490;28;20071;-76
2024/02/10 05:06:09;;;;;;;6.00;2.75;;;14.00;60.00;;;;;;6292287;28;20721;-75
2024/02/10 05:09:13;;;;;;;5.72;2.83;;;14.00;60.00;;;;;;6282554;28;20028;-76
2024/02/10 05:12:14;;;;;;;4.47;2.60;;;14.00;60.00;;;;;;6302709;28;20036;-75
2024/02/10 05:15:21;;;;;;;5.03;2.88;;;14.00;60.00;;;;;;6291984;28;20017;-75
2024/02/10 05:18:21;;;;;;;4.85;2.85;;;14.00;60.10;;;;;;6293530;28;20028;-75
2024/02/10 05:21:27;;;;;;;5.97;2.70;;;14.00;60.10;;;;;;6287096;28;20127;-75
2024/02/10 05:24:30;;;;;;;4.93;3.05;;;14.00;60.20;;;;;;6300795;28;20017;-76
2024/02/10 05:27:31;;;;;;;5.47;3.17;;;14.00;60.30;;;;;;6292776;28;20047;-75
2024/02/10 05:30:32;;;;;;;6.18;2.80;;;14.00;60.40;;;;;;6298923;28;20017;-74
2024/02/10 05:33:33;;;;;;;5.45;2.70;;;14.00;60.40;;;;;;6297920;28;20028;-75
2024/02/10 05:36:36;;;;;;;5.72;2.30;;;14.00;60.40;;;;;;6290368;28;20408;-74
2024/02/10 05:39:37;;;;;;;4.70;2.85;;;14.00;60.50;;;;;;6276979;28;20032;-76
2024/02/10 05:42:38;;;;;;;5.63;2.75;;;13.90;60.70;;;;;;6305190;28;20131;-73
2024/02/10 05:45:38;;;;;;;7.07;2.65;;;13.80;60.90;;;;;;6273415;28;20071;-75
2024/02/10 05:48:39;;;;;;;4.78;2.60;;;13.80;61.10;;;;;;6286985;28;20036;-75
2024/02/10 05:51:40;;;;;;;4.50;2.72;;;13.80;61.20;;;;;;6297163;28;20139;-75
2024/02/10 05:54:41;;;;;;;4.90;2.53;;;13.70;61.30;;;;;;6285602;28;20107;-74
2024/02/10 05:57:42;;;;;;;5.05;2.70;;;13.70;61.50;;;;;;6289978;28;20023;-74
2024/02/10 06:00:44;;;;;;;3.95;2.58;;;13.60;61.60;;;;;;6287621;28;20024;-75
2024/02/10 06:03:45;;;;;;;7.22;2.97;;;13.60;61.90;;;;;;6286650;28;20028;-75
2024/02/10 06:06:47;;;;;;;4.18;2.85;;;13.60;62.10;;;;;;6288752;28;20168;-76
2024/02/10 06:09:48;;;;;;;5.47;2.47;;;13.50;62.30;;;;;;6292364;28;20024;-73
2024/02/10 06:12:52;;;;;;;4.15;2.65;;;13.50;62.50;;;;;;6293998;28;20094;-76
2024/02/10 06:15:54;;;;;;;4.57;2.55;;;13.50;62.50;;;;;;6306064;28;20023;-76
2024/02/10 06:18:55;;;;;;;10.55;2.83;;;13.50;62.40;;;;;;6288603;28;20074;-76
2024/02/10 06:21:56;;;;;;;3.72;2.30;;;13.60;62.40;;;;;;6288279;28;20016;-75
2024/02/10 06:24:57;;;;;;;7.13;2.85;;;13.60;62.20;;;;;;6287805;28;20027;-76
2024/02/10 06:27:59;;;;;;;4.35;2.63;;;13.60;62.00;;;;;;6285279;28;20632;-75
2024/02/10 06:31:00;;;;;;;4.65;3.15;;;13.60;62.00;;;;;;6299848;28;20017;-74
2024/02/10 06:34:01;;;;;;;6.15;3.13;;;13.60;62.10;;;;;;6278326;28;20384;-75
2024/02/10 06:37:02;;;;;;;4.60;2.55;;;13.60;62.00;;;;;;6275443;28;20031;-75
2024/02/10 06:40:07;;;;;;;6.13;2.95;;;13.70;62.00;;;;;;6280834;28;20024;-75
2024/02/10 06:43:12;;;;;;;3.63;2.70;;;13.60;62.00;;;;;;6295229;28;20029;-76
2024/02/10 06:46:13;;;;;;;5.80;3.13;;;13.70;62.10;;;;;;6293959;28;20114;-76
2024/02/10 06:49:20;;;;;;;8.63;2.95;;;13.60;62.00;;;;;;6302088;28;20020;-77
2024/02/10 06:52:21;;;;;;;6.63;3.22;;;13.70;62.10;;;;;;6296131;28;20052;-75
2024/02/10 06:55:23;;;;;;;4.75;2.88;;;13.60;62.20;;;;;;6284635;28;20078;-76
2024/02/10 06:58:25;;;;;;;4.50;2.72;;;13.60;62.30;;;;;;6285235;28;20484;-76
2024/02/10 07:01:28;;;;;;;6.55;3.63;;;13.60;62.40;;;;;;6291384;28;20517;-76
2024/02/10 07:04:29;;;;;;;5.93;2.90;;;13.60;62.40;;;;;;6291850;28;20773;-76
2024/02/10 07:07:29;;;;;;;4.90;2.70;;;13.60;62.40;;;;;;6284147;28;20024;-76
2024/02/10 07:10:33;;;;;;;6.80;3.05;;;13.60;62.40;;;;;;6278018;28;20055;-75
2024/02/10 07:13:36;;;;;;;4.40;2.60;;;13.60;62.30;;;;;;6289364;28;20024;-75
2024/02/10 07:16:37;;;;;;;7.22;3.63;;;13.60;62.20;;;;;;6283735;28;20039;-75
2024/02/10 07:19:42;;;;;;;6.55;3.22;;;13.60;62.20;;;;;;6295877;28;20096;-75
2024/02/10 07:22:43;;;;;;;10.35;3.67;;;13.70;62.10;;;;;;6274641;28;20029;-74
2024/02/10 07:25:45;;;;;;;7.40;3.13;;;13.70;62.00;;;;;;6270417;28;20558;-74
2024/02/10 07:28:52;;;;;;;7.35;3.25;;;13.70;62.00;;;;;;6287265;28;20043;-75
2024/02/10 07:31:55;;;;;;;5.80;3.03;;;13.50;61.90;;;;;;6281135;28;20033;-76
2024/02/10 07:34:57;;;;;;;9.27;3.38;;;13.70;62.00;;;;;;6300605;28;20350;-75
2024/02/10 07:37:58;;;;;;;5.13;3.53;;;13.70;62.00;;;;;;6301269;28;20048;-75
2024/02/10 07:40:59;;;;;;;7.72;3.75;;;13.80;62.10;;;;;;6296095;28;20016;-74
2024/02/10 07:44:02;;;;;;;7.07;3.55;;;13.80;61.90;;;;;;6291741;28;20560;-75
2024/02/10 07:47:05;;;;;;;7.32;3.47;;;13.80;62.00;;;;;;6293508;28;20029;-75
2024/02/10 07:50:06;;;;;;;7.47;3.05;;;13.70;62.10;;;;;;6286911;28;20048;-75
2024/02/10 07:53:12;;;;;;;5.45;3.65;;;13.70;62.40;;;;;;6293529;28;20115;-77
2024/02/10 07:56:13;;;;;;;5.63;2.67;;;13.70;62.60;;;;;;6282727;28;20027;-74
2024/02/10 07:59:14;;;;;;;9.82;3.38;;;13.60;62.50;;;;;;6283817;28;20452;-76
2024/02/10 08:02:16;;;;;;;7.68;3.50;;;13.60;62.50;;;;;;6290104;28;20239;-75
2024/02/10 08:05:20;;;;;;;7.88;3.80;;;13.60;62.70;;;;;;6289690;28;20464;-75
2024/02/10 08:08:23;;;;;;;7.97;3.33;;;13.60;62.90;;;;;;6286467;28;21677;-76
2024/02/10 08:11:28;;;;;;;15.82;4.25;;;13.60;62.90;;;;;;6287951;28;20031;-75
2024/02/10 08:14:28;;;;;;;7.40;3.63;;;13.60;63.00;;;;;;6289310;28;20031;-76
2024/02/10 08:17:30;;;;;;;9.30;4.40;;;13.60;62.90;;;;;;6288994;28;20115;-76
2024/02/10 08:20:31;;;;;;;7.53;4.20;;;13.70;63.00;;;;;;6287877;28;20016;-74
2024/02/10 08:23:34;;;;;;;8.07;3.78;;;13.70;62.80;;;;;;6285534;28;20066;-76
2024/02/10 08:26:37;;;;;;;7.72;4.43;;;13.80;62.70;;;;;;6288560;28;20021;-75
2024/02/10 08:29:39;;;;;;;5.40;3.53;;;13.80;62.50;;;;;;6286266;28;20021;-75
2024/02/10 08:32:40;;;;;;;11.05;4.22;;;13.90;62.50;;;;;;6285628;28;20177;-75
2024/02/10 08:35:41;;;;;;;9.05;4.60;;;14.00;62.30;;;;;;6288876;28;20466;-76
2024/02/10 08:38:46;;;;;;;8.63;4.20;;;14.10;62.10;;;;;;6284146;28;20032;-76
2024/02/10 08:41:47;;;;;;;11.02;4.07;;;14.10;62.00;;;;;;6282367;28;20029;-76
2024/02/10 08:44:49;;;;;;;13.63;4.50;;;14.30;61.80;;;;;;6292296;28;20467;-76
2024/02/10 08:47:50;;;;;;;10.50;5.30;;;14.30;61.50;;;;;;6293454;28;20511;-77
2024/02/10 08:50:51;;;;;;;10.98;4.60;;;14.40;61.30;;;;;;6285926;28;20021;-77
2024/02/10 08:53:54;;;;;;;13.05;5.20;;;14.50;61.10;;;;;;6286450;28;20028;-76
2024/02/10 08:56:56;;;;;;;10.15;4.72;;;14.60;60.70;;;;;;6286594;28;20020;-74
2024/02/10 08:59:57;;;;;;;9.52;4.97;;;14.70;60.50;;;;;;6283104;28;20151;-75
2024/02/10 09:02:58;;;;;;;8.77;4.53;;;14.80;60.40;;;;;;6289368;28;20026;-75
2024/02/10 09:05:59;;;;;;;10.50;4.97;;;14.70;60.00;;;;;;6287962;28;20035;-76
2024/02/10 09:08:59;;;;;;;9.98;4.97;;;14.80;60.00;;;;;;6288129;28;20168;-76
2024/02/10 09:12:00;;;;;;;21.85;5.40;;;14.90;60.10;;;;;;6285932;28;20442;-76
2024/02/10 09:15:02;;;;;;;13.73;5.22;;;15.00;60.00;;;;;;6287813;28;20013;-74
2024/02/10 09:18:03;;;;;;;9.43;4.40;;;15.10;59.70;;;;;;6285955;28;20069;-73
2024/02/10 09:21:04;;;;;;;12.52;5.55;;;15.00;59.60;;;;;;6283892;28;20548;-76
2024/02/10 09:24:05;;;;;;;14.13;5.28;;;15.00;59.60;;;;;;6291907;28;20431;-74
2024/02/10 09:27:09;;;;;;;8.52;4.55;;;15.00;59.80;;;;;;6293798;28;20093;-75
2024/02/10 09:30:11;;;;;;;13.30;5.20;;;15.10;59.70;;;;;;6292963;28;20052;-75
2024/02/10 09:33:20;;;;;;;13.95;5.07;;;15.10;59.40;;;;;;6287676;28;20032;-76
2024/02/10 09:36:22;;;;;;;10.40;5.18;;;15.10;59.50;;;;;;6292805;28;20115;-75
2024/02/10 09:39:23;;;;;;;9.68;5.88;;;15.20;59.40;;;;;;6292428;28;20071;-74
2024/02/10 09:42:30;;;;;;;9.15;4.82;;;15.20;59.40;;;;;;6290698;28;20480;-73
2024/02/10 09:45:34;;;;;;;12.27;5.30;;;15.20;59.40;;;;;;6285588;28;20020;-74
2024/02/10 09:48:45;;;;;;;11.98;5.60;;;15.30;59.10;;;;;;6293365;28;20071;-75
2024/02/10 09:51:45;;;;;;;16.08;6.40;;;15.30;59.10;;;;;;6289212;28;20531;-75
2024/02/10 09:54:46;;;;;;;12.40;6.03;;;15.40;59.00;;;;;;6290836;28;20116;-75
2024/02/10 09:57:51;;;;;;;15.93;6.68;;;15.40;59.10;;;;;;6291415;28;20496;-75
2024/02/10 10:00:53;;;;;;;11.98;5.93;;;15.50;59.00;;;;;;6292659;28;20020;-75
2024/02/10 10:03:54;;;;;;;14.35;6.78;;;15.50;58.90;;;;;;6292720;28;20029;-74
2024/02/10 10:06:56;;;;;;;22.33;8.95;;;15.40;58.80;;;;;;6292275;28;20059;-74
2024/02/10 10:09:58;;;;;;;28.52;8.05;;;15.40;59.00;;;;;;6289229;28;20089;-73
2024/02/10 10:12:59;;;;;;;22.42;7.65;;;15.50;59.00;;;;;;6290893;28;20092;-76
2024/02/10 10:16:02;;;;;;;16.88;6.97;;;15.50;59.00;;;;;;6290766;28;20017;-75
2024/02/10 10:19:03;;;;;;;14.73;6.60;;;15.60;58.90;;;;;;6290972;28;20650;-75
2024/02/10 10:22:04;;;;;;;15.10;7.32;;;15.60;58.70;;;;;;6289166;28;20016;-75
2024/02/10 10:25:06;;;;;;;16.85;6.40;;;15.70;58.60;;;;;;6289945;28;20536;-76
2024/02/10 10:28:07;;;;;;;15.82;7.10;;;15.70;58.40;;;;;;6286171;28;20494;-73
2024/02/10 10:31:08;;;;;;;15.77;6.70;;;15.70;58.40;;;;;;6291196;28;20123;-75
2024/02/10 10:34:10;;;;;;;15.13;6.70;;;15.70;58.40;;;;;;6286077;28;20085;-75
2024/02/10 10:37:12;;;;;;;18.08;7.18;;;15.80;59.00;;;;;;6288559;28;20016;-74
2024/02/10 10:40:13;;;;;;;18.05;7.88;;;15.90;58.30;;;;;;6290735;28;20017;-76
2024/02/10 10:43:17;;;;;;;19.20;8.15;;;16.00;58.10;;;;;;6291291;28;20023;-75
2024/02/10 10:46:19;;;;;;;12.50;6.65;;;16.10;58.10;;;;;;6288829;28;20020;-75
2024/02/10 10:49:20;;;;;;;18.65;8.57;;;16.10;57.80;;;;;;6286032;28;20032;-74
2024/02/10 10:52:27;;;;;;;15.98;6.50;;;16.20;57.70;;;;;;6291287;28;20039;-76
2024/02/10 10:55:29;;;;;;;21.73;8.82;;;16.20;57.70;;;;;;6286894;28;20089;-73
2024/02/10 10:58:38;;;;;;;13.10;6.28;;;16.20;57.50;;;;;;6271413;28;20016;-75
2024/02/10 11:01:40;;;;;;;14.38;7.15;;;16.20;57.40;;;;;;6289275;28;20029;-75
2024/02/10 11:04:41;;;;;;;17.80;6.32;;;16.20;57.30;;;;;;6288888;28;20020;-75
2024/02/10 11:07:48;;;;;;;11.60;5.95;;;16.10;57.50;;;;;;6287158;28;20040;-75
2024/02/10 11:10:50;;;;;;;14.18;5.45;;;16.10;57.60;;;;;;6289859;28;20460;-76
2024/02/10 11:13:50;;;;;;;11.95;6.28;;;16.00;57.70;;;;;;6285844;28;20029;-76
2024/02/10 11:16:53;;;;;;;23.05;7.65;;;16.00;57.80;;;;;;6288654;28;20056;-76
2024/02/10 11:20:12;;;;;;;18.13;6.30;;;16.00;58.00;;;;;;6289440;28;20024;-74
2024/02/10 11:23:19;;;;;;;17.67;6.72;;;16.00;58.00;;;;;;6288118;28;20260;-76
2024/02/10 11:26:20;;;;;;;20.38;7.97;;;16.10;58.00;;;;;;6286022;28;20017;-73
2024/02/10 11:29:21;;;;;;;18.83;7.45;;;16.20;57.90;;;;;;6287199;28;20050;-75
2024/02/10 11:32:23;;;;;;;23.45;8.65;;;16.30;57.80;;;;;;6292357;28;20056;-76
2024/02/10 11:35:23;;;;;;;21.65;8.73;;;16.30;57.70;;;;;;6284395;28;20024;-76
2024/02/10 11:38:24;;;;;;;17.58;7.75;;;16.30;57.60;;;;;;6289171;28;20051;-75
2024/02/10 11:41:27;;;;;;;30.15;9.15;;;16.30;57.70;;;;;;6285506;28;20012;-78
2024/02/10 11:44:28;;;;;;;18.35;8.98;;;16.30;57.70;;;;;;6287162;28;21350;-75
2024/02/10 11:47:31;;;;;;;21.77;9.00;;;16.40;57.60;;;;;;6294857;28;20424;-76
2024/02/10 11:50:32;;;;;;;15.43;6.70;;;16.50;57.40;;;;;;6295316;28;20020;-75
2024/02/10 11:53:34;;;;;;;16.90;7.72;;;16.60;57.30;;;;;;6288604;28;20086;-76
2024/02/10 11:56:35;;;;;;;28.75;10.52;;;16.40;57.20;;;;;;6287319;28;20059;-75
2024/02/10 11:59:36;;;;;;;20.50;7.72;;;16.40;57.30;;;;;;6287583;28;20447;-74
2024/02/10 12:02:37;;;;;;;20.27;7.90;;;16.40;57.40;;;;;;6285879;28;20117;-76
2024/02/10 12:05:40;;;;;;;14.60;6.13;;;16.50;57.40;;;;;;6285347;28;20070;-76
2024/02/10 12:08:43;;;;;;;10.30;6.13;;;16.40;57.30;;;;;;6286429;28;20109;-76
2024/02/10 12:11:46;;;;;;;12.55;5.88;;;16.40;57.40;;;;;;6285300;28;20191;-75
2024/02/10 12:14:47;;;;;;;11.07;6.18;;;16.30;57.50;;;;;;6286482;28;20060;-76
2024/02/10 12:17:48;;;;;;;12.30;5.43;;;16.30;57.60;;;;;;6285879;28;20044;-76
2024/02/10 12:20:51;;;;;;;12.50;5.80;;;16.30;57.60;;;;;;6285905;28;20083;-76
2024/02/10 12:23:53;;;;;;;15.48;7.50;;;16.40;57.60;;;;;;6282469;28;20029;-75
2024/02/10 12:26:54;;;;;;;17.90;7.38;;;16.40;57.50;;;;;;6276175;28;20100;-75
2024/02/10 12:29:55;;;;;;;14.90;6.70;;;16.40;57.50;;;;;;6268272;28;20024;-76
2024/02/10 12:32:58;;;;;;;22.27;9.30;;;16.40;57.50;;;;;;6296011;28;20027;-76
2024/02/10 12:36:00;;;;;;;16.95;7.93;;;16.40;57.50;;;;;;6294665;28;20058;-75
2024/02/10 12:39:04;;;;;;;14.73;6.80;;;16.40;57.50;;;;;;6282264;28;20012;-75
2024/02/10 12:42:05;;;;;;;21.70;9.23;;;16.50;57.60;;;;;;6289601;28;20642;-76
2024/02/10 12:45:07;;;;;;;17.33;6.45;;;16.50;57.60;;;;;;6305373;28;20163;-76
2024/02/10 12:48:08;;;;;;;16.45;6.88;;;16.60;57.50;;;;;;6278319;28;20542;-75
2024/02/10 12:51:09;;;;;;;24.95;6.22;;;16.70;57.30;;;;;;6288110;28;20021;-75
2024/02/10 12:54:10;;;;;;;18.50;7.45;;;16.70;57.00;;;;;;6300298;28;20163;-75
2024/02/10 12:57:12;;;;;;;11.85;5.60;;;16.70;57.10;;;;;;6294736;28;20388;-75
2024/02/10 13:00:22;;;;;;;15.93;7.45;;;16.80;56.90;;;;;;6283460;28;20024;-75
2024/02/10 13:03:23;;;;;;;24.88;8.93;;;16.90;56.60;;;;;;6280720;28;20025;-76
2024/02/10 13:06:24;;;;;;;11.77;6.53;;;16.90;56.60;;;;;;6285265;28;20542;-77
2024/02/10 13:09:25;;;;;;;9.73;5.10;;;17.00;56.40;;;;;;6281284;28;20074;-75
2024/02/10 13:12:26;;;;;;;14.07;6.50;;;17.20;56.20;;;;;;6297060;28;20391;-76
2024/02/10 13:15:27;;;;;;;9.70;5.20;;;17.30;56.00;;;;;;6272870;28;20116;-76
2024/02/10 13:18:28;;;;;;;17.55;7.03;;;17.30;55.70;;;;;;6274429;28;20024;-76
2024/02/10 13:21:29;;;;;;;18.88;9.10;;;17.30;55.50;;;;;;6281616;28;20012;-76
2024/02/10 13:24:31;;;;;;;13.05;5.63;;;17.30;55.60;;;;;;6265208;28;20428;-76
2024/02/10 13:27:32;;;;;;;8.57;4.45;;;17.30;55.80;;;;;;6294931;28;20020;-75
2024/02/10 13:30:34;;;;;;;10.07;4.75;;;17.20;55.90;;;;;;6287730;28;20484;-74
2024/02/10 13:33:38;;;;;;;15.50;5.50;;;17.20;56.10;;;;;;6291708;28;20137;-74
2024/02/10 14:03:17;;;;;;;12.35;5.55;;;16.80;58.10;;;;;;6269650;28;20116;-74
2024/02/10 14:06:14;;;;;;;6.93;3.53;;;16.90;58.10;;;;;;6280120;28;20036;-75
2024/02/10 14:09:17;;;;;;;7.85;3.70;;;17.00;58.00;;;;;;6292527;28;20474;-76
2024/02/10 14:12:18;;;;;;;3.42;1.80;;;17.10;57.80;;;;;;6286079;28;20096;-76
2024/02/10 14:15:29;;;;;;;5.10;2.10;;;17.10;57.40;;;;;;6286097;28;20056;-74
2024/02/10 14:18:30;;;;;;;4.13;1.95;;;17.10;57.10;;;;;;6294440;28;20099;-75
2024/02/10 14:21:33;;;;;;;6.88;2.17;;;17.20;57.10;;;;;;6298409;28;20154;-76
2024/02/10 14:24:35;;;;;;;3.13;1.70;;;17.20;57.10;;;;;;6286505;28;20508;-75
2024/02/10 14:27:38;;;;;;;8.57;3.13;;;17.20;57.00;;;;;;6284632;28;20061;-76
2024/02/10 14:30:41;;;;;;;2.92;1.50;;;17.20;56.90;;;;;;6279866;28;20025;-76
2024/02/10 14:33:43;;;;;;;2.05;1.30;;;17.20;56.80;;;;;;6289233;28;20123;-76
2024/02/10 14:36:55;;;;;;;7.50;1.58;;;17.20;56.50;;;;;;6289950;28;20115;-76
2024/02/10 14:39:59;;;;;;;1.55;0.85;;;17.20;56.30;;;;;;6294815;28;20017;-76
2024/02/10 14:43:00;;;;;;;4.45;2.47;;;17.20;56.20;;;;;;6280324;28;20031;-76
2024/02/10 14:46:09;;;;;;;4.38;1.98;;;17.20;56.10;;;;;;6270766;28;20187;-75
2024/02/10 14:49:16;;;;;;;;;;;17.10;55.80;;;;;;6298378;28;20046;-75
2024/02/10 14:52:16;;;;;;;1.38;0.75;;;17.00;55.90;;;;;;6284428;28;20015;-76
2024/02/10 14:55:18;;;;;;;3.58;1.52;;;17.10;55.90;;;;;;6287926;28;20667;-75
2024/02/10 14:58:19;;;;;;;6.47;2.03;;;17.00;55.80;;;;;;6299855;28;20012;-75
2024/02/10 15:01:20;;;;;;;5.88;1.77;;;17.00;55.60;;;;;;6276590;28;20024;-74
2024/02/10 15:04:22;;;;;;;4.80;1.23;;;17.00;55.90;;;;;;6284964;28;20466;-75
2024/02/10 15:07:24;;;;;;;2.72;1.15;;;17.00;56.10;;;;;;6282261;28;20039;-73
2024/02/10 15:10:25;;;;;;;1.10;0.45;;;17.00;55.70;;;;;;6279749;28;20111;-74
2024/02/10 15:13:25;;;;;;;2.28;1.15;;;17.00;55.40;;;;;;6282255;28;20058;-75
2024/02/10 15:16:27;;;;;;;2.75;1.60;;;17.00;55.00;;;;;;6298331;28;20066;-74
2024/02/10 15:19:28;;;;;;;5.40;1.83;;;17.10;54.50;;;;;;6282849;28;20069;-75
2024/02/10 15:22:29;;;;;;;0.85;0.60;;;17.10;53.80;;;;;;6283769;28;20564;-75
2024/02/10 15:25:32;;;;;;;0.45;0.30;;;17.20;53.60;;;;;;6296214;28;20107;-75
2024/02/10 15:28:34;;;;;;;0.47;0.38;;;17.20;52.70;;;;;;6290899;28;20016;-72
2024/02/10 15:31:35;;;;;;;0.28;0.28;;;17.20;52.10;;;;;;6281606;28;20028;-76
2024/02/10 15:34:36;;;;;;;1.42;0.40;;;17.20;51.80;;;;;;6283721;28;20185;-74
2024/02/10 15:37:38;;;;;;;1.98;0.70;;;17.20;51.90;;;;;;6287742;28;20020;-74
2024/02/10 15:40:50;;;;;;;0.93;0.40;;;17.20;51.70;;;;;;6287257;28;20028;-75
2024/02/10 15:43:51;;;;;;;3.58;0.82;;;17.20;51.60;;;;;;6284878;28;20033;-76
2024/02/10 15:46:52;;;;;;;2.45;0.80;;;17.20;51.30;;;;;;6282764;28;20028;-74
2024/02/10 15:49:55;;;;;;;3.35;1.48;;;17.10;51.40;;;;;;6284869;28;20036;-74
2024/02/10 15:52:56;;;;;;;1.60;1.05;;;17.20;51.50;;;;;;6281048;28;20044;-74
2024/02/10 15:55:57;;;;;;;2.78;1.13;;;17.20;51.20;;;;;;6301291;28;20036;-75
2024/02/10 15:58:58;;;;;;;2.30;1.25;;;17.20;51.10;;;;;;6290896;28;20094;-75
2024/02/10 16:01:59;;;;;;;2.80;1.30;;;17.20;50.90;;;;;;6285221;28;20048;-74
2024/02/10 16:05:00;;;;;;;0.60;0.43;;;17.20;50.80;;;;;;6297687;28;20078;-75
2024/02/10 16:08:01;;;;;;;0.47;0.20;;;17.10;50.70;;;;;;6291866;28;20119;-75
2024/02/10 16:11:03;;;;;;;0.35;0.30;;;17.10;50.30;;;;;;6280987;28;20036;-75
2024/02/10 16:14:04;;;;;;;7.28;0.40;;;17.10;50.50;;;;;;6282999;28;20024;-75